createdAt,value
2018-09-03T00:00:28.899Z,76.17
2018-09-03T00:01:28.884Z,76.11
2018-09-03T00:02:28.870Z,76.26
2018-09-03T00:03:28.863Z,76.65
2018-09-03T00:04:28.844Z,76.75
2018-09-03T00:05:28.826Z,76.84
2018-09-03T00:06:28.813Z,77.33
2018-09-03T00:07:28.798Z,77.23
2018-09-03T00:08:28.795Z,77.13
2018-09-03T00:09:28.787Z,77.04
2018-09-03T00:10:28.759Z,77.61
2018-09-03T00:11:28.743Z,76.94
2018-09-03T00:12:28.727Z,77.33
2018-09-03T00:13:28.715Z,77.42
2018-09-03T00:14:28.709Z,77.04
2018-09-03T00:15:28.684Z,77.42
2018-09-03T00:16:28.678Z,77.51
2018-09-03T00:17:28.704Z,77.42
2018-09-03T00:18:28.640Z,77.51
2018-09-03T00:19:28.627Z,78.19
2018-09-03T00:20:28.613Z,78.00
2018-09-03T00:21:28.604Z,78.19
2018-09-03T00:22:28.582Z,78.38
2018-09-03T00:23:28.568Z,78.09
2018-09-03T00:24:28.555Z,78.44
2018-09-03T00:25:28.541Z,78.63
2018-09-03T00:26:28.528Z,79.02
2018-09-03T00:27:28.513Z,79.30
2018-09-03T00:28:28.503Z,79.50
2018-09-03T00:29:28.492Z,79.50
2018-09-03T00:30:28.469Z,79.69
2018-09-03T00:31:28.452Z,79.69
2018-09-03T00:32:28.448Z,79.40
2018-09-03T00:33:28.481Z,79.88
2018-09-03T00:34:28.412Z,80.07
2018-09-03T00:35:28.395Z,80.17
2018-09-03T00:36:28.379Z,80.46
2018-09-03T00:37:28.365Z,80.84
2018-09-03T00:38:28.350Z,80.84
2018-09-03T00:39:28.338Z,80.84
2018-09-03T00:40:28.327Z,81.04
2018-09-03T00:41:28.306Z,80.94
2018-09-03T00:42:28.290Z,81.23
2018-09-03T00:43:28.278Z,81.23
2018-09-03T00:44:28.260Z,81.52
2018-09-03T00:45:28.249Z,81.32
2018-09-03T00:46:28.233Z,81.23
2018-09-03T00:47:28.218Z,81.32
2018-09-03T00:48:28.204Z,81.61
2018-09-03T00:49:28.188Z,81.52
2018-09-03T00:50:28.175Z,81.32
2018-09-03T00:51:28.160Z,81.23
2018-09-03T00:52:28.286Z,81.13
2018-09-03T00:53:28.131Z,81.23
2018-09-03T00:54:28.117Z,81.23
2018-09-03T00:55:28.102Z,80.94
2018-09-03T00:56:28.094Z,81.04
2018-09-03T00:57:28.071Z,81.52
2018-09-03T00:58:28.057Z,81.81
2018-09-03T00:59:28.047Z,81.52
2018-09-03T01:00:28.087Z,81.71
2018-09-03T01:01:28.013Z,81.61
2018-09-03T01:02:28.003Z,81.86
2018-09-03T01:03:27.995Z,82.19
2018-09-03T01:04:27.971Z,82.09
2018-09-03T01:05:27.958Z,82.48
2018-09-03T01:06:27.949Z,82.38
2018-09-03T01:07:27.931Z,82.19
2018-09-03T01:08:27.911Z,82.29
2018-09-03T01:09:27.909Z,82.29
2018-09-03T01:10:27.882Z,82.29
2018-09-03T01:11:27.867Z,81.90
2018-09-03T01:12:27.856Z,81.99
2018-09-03T01:13:27.841Z,81.90
2018-09-03T01:14:27.824Z,81.81
2018-09-03T01:15:27.812Z,81.90
2018-09-03T01:16:27.795Z,81.90
2018-09-03T01:17:27.785Z,82.19
2018-09-03T01:18:27.769Z,82.19
2018-09-03T01:19:27.853Z,82.38
2018-09-03T01:20:27.740Z,81.90
2018-09-03T01:21:27.724Z,82.09
2018-09-03T01:22:27.705Z,82.19
2018-09-03T01:23:27.702Z,82.19
2018-09-03T01:24:27.682Z,82.57
2018-09-03T01:25:27.667Z,82.48
2018-09-03T01:26:27.648Z,82.19
2018-09-03T01:27:27.635Z,82.96
2018-09-03T01:28:27.626Z,82.48
2018-09-03T01:29:27.646Z,82.76
2018-09-03T01:30:27.593Z,82.86
2018-09-03T01:31:27.583Z,82.57
2018-09-03T01:32:27.559Z,82.48
2018-09-03T01:33:27.548Z,82.38
2018-09-03T01:34:27.536Z,82.76
2018-09-03T01:35:27.675Z,82.76
2018-09-03T01:36:27.501Z,83.06
2018-09-03T01:37:27.485Z,82.96
2018-09-03T01:38:27.477Z,82.76
2018-09-03T01:39:27.465Z,83.25
2018-09-03T01:40:27.445Z,83.63
2018-09-03T01:41:27.433Z,83.44
2018-09-03T01:42:27.412Z,83.83
2018-09-03T01:43:27.400Z,83.34
2018-09-03T01:44:27.384Z,83.83
2018-09-03T01:45:27.370Z,83.63
2018-09-03T01:46:27.364Z,83.63
2018-09-03T01:47:27.345Z,83.63
2018-09-03T01:48:27.326Z,84.01
2018-09-03T01:49:27.315Z,83.63
2018-09-03T01:50:27.295Z,83.73
2018-09-03T01:51:27.286Z,83.83
2018-09-03T01:52:27.268Z,84.01
2018-09-03T01:53:27.253Z,83.83
2018-09-03T01:54:27.239Z,84.11
2018-09-03T01:55:27.228Z,84.01
2018-09-03T01:56:27.209Z,83.83
2018-09-03T01:57:27.197Z,83.83
2018-09-03T01:58:27.180Z,84.21
2018-09-03T01:59:27.165Z,83.83
2018-09-03T02:00:27.200Z,84.01
2018-09-03T02:01:27.143Z,83.92
2018-09-03T02:02:27.120Z,83.83
2018-09-03T02:03:27.106Z,83.83
2018-09-03T02:04:27.091Z,83.92
2018-09-03T02:05:27.076Z,84.50
2018-09-03T02:06:27.063Z,84.69
2018-09-03T02:07:27.049Z,84.50
2018-09-03T02:08:27.036Z,84.69
2018-09-03T02:09:27.018Z,84.30
2018-09-03T02:10:27.004Z,84.78
2018-09-03T02:11:26.997Z,84.59
2018-09-03T02:12:26.973Z,84.88
2018-09-03T02:13:26.959Z,84.98
2018-09-03T02:14:26.953Z,84.88
2018-09-03T02:15:26.931Z,84.78
2018-09-03T02:16:26.930Z,85.17
2018-09-03T02:17:26.901Z,84.98
2018-09-03T02:18:26.911Z,85.17
2018-09-03T02:19:26.876Z,85.27
2018-09-03T02:20:26.857Z,85.36
2018-09-03T02:21:26.842Z,85.17
2018-09-03T02:22:26.828Z,85.46
2018-09-03T02:23:26.814Z,85.55
2018-09-03T02:24:26.801Z,85.75
2018-09-03T02:25:26.787Z,85.32
2018-09-03T02:26:26.769Z,85.75
2018-09-03T02:27:26.756Z,85.55
2018-09-03T02:28:26.740Z,85.36
2018-09-03T02:29:26.725Z,85.36
2018-09-03T02:30:26.718Z,85.65
2018-09-03T02:31:26.695Z,85.94
2018-09-03T02:32:26.679Z,85.94
2018-09-03T02:33:26.667Z,85.94
2018-09-03T02:34:26.652Z,86.04
2018-09-03T02:35:26.638Z,85.84
2018-09-03T02:36:26.622Z,86.13
2018-09-03T02:37:26.615Z,86.13
2018-09-03T02:38:26.594Z,86.04
2018-09-03T02:39:26.588Z,86.28
2018-09-03T02:40:26.567Z,86.42
2018-09-03T02:41:26.553Z,86.18
2018-09-03T02:42:26.536Z,86.38
2018-09-03T02:43:26.520Z,86.76
2018-09-03T02:44:26.507Z,86.76
2018-09-03T02:45:26.489Z,86.76
2018-09-03T02:46:26.481Z,86.57
2018-09-03T02:47:26.465Z,86.38
2018-09-03T02:48:26.445Z,86.66
2018-09-03T02:49:26.439Z,86.66
2018-09-03T02:50:26.416Z,86.71
2018-09-03T02:51:26.408Z,86.47
2018-09-03T02:52:26.386Z,86.47
2018-09-03T02:53:26.371Z,86.66
2018-09-03T02:54:26.358Z,86.76
2018-09-03T02:55:26.348Z,86.85
2018-09-03T02:56:26.340Z,86.76
2018-09-03T02:57:26.315Z,86.71
2018-09-03T02:58:26.297Z,86.52
2018-09-03T02:59:26.285Z,86.90
2018-09-03T03:00:26.270Z,86.80
2018-09-03T03:01:26.254Z,86.61
2018-09-03T03:02:26.239Z,86.85
2018-09-03T03:03:26.231Z,86.66
2018-09-03T03:04:26.208Z,87.19
2018-09-03T03:05:26.197Z,86.80
2018-09-03T03:06:26.191Z,86.76
2018-09-03T03:07:26.166Z,86.99
2018-09-03T03:08:26.150Z,86.71
2018-09-03T03:09:26.137Z,86.52
2018-09-03T03:10:26.121Z,86.71
2018-09-03T03:11:26.109Z,86.66
2018-09-03T03:12:26.090Z,87.38
2018-09-03T03:13:26.078Z,87.62
2018-09-03T03:14:26.063Z,87.92
2018-09-03T03:15:26.048Z,87.24
2018-09-03T03:16:26.032Z,87.43
2018-09-03T03:17:26.018Z,87.53
2018-09-03T03:18:26.005Z,88.10
2018-09-03T03:19:25.996Z,88.20
2018-09-03T03:20:26.175Z,88.45
2018-09-03T03:21:25.956Z,88.87
2018-09-03T03:22:25.945Z,88.97
2018-09-03T03:23:25.928Z,88.54
2018-09-03T03:24:25.913Z,88.54
2018-09-03T03:25:25.902Z,88.73
2018-09-03T03:26:25.883Z,89.22
2018-09-03T03:27:25.870Z,89.36
2018-09-03T03:28:25.854Z,89.40
2018-09-03T03:29:25.849Z,89.02
2018-09-03T03:30:25.824Z,89.02
2018-09-03T03:31:25.819Z,88.83
2018-09-03T03:32:25.796Z,89.54
2018-09-03T03:33:25.787Z,89.02
2018-09-03T03:34:25.765Z,89.64
2018-09-03T03:35:25.751Z,89.50
2018-09-03T03:36:25.737Z,89.64
2018-09-03T03:37:25.721Z,89.45
2018-09-03T03:38:25.707Z,89.54
2018-09-03T03:39:25.690Z,89.31
2018-09-03T03:40:25.676Z,89.45
2018-09-03T03:41:25.666Z,89.40
2018-09-03T03:42:25.646Z,89.74
2018-09-03T03:43:25.633Z,89.36
2018-09-03T03:44:25.615Z,89.45
2018-09-03T03:45:25.600Z,89.74
2018-09-03T03:46:25.587Z,90.03
2018-09-03T03:47:25.573Z,89.40
2018-09-03T03:48:25.560Z,90.37
2018-09-03T03:49:25.542Z,90.17
2018-09-03T03:50:25.578Z,90.84
2018-09-03T03:51:25.513Z,90.56
2018-09-03T03:52:25.496Z,90.94
2018-09-03T03:53:25.481Z,91.61
2018-09-03T03:54:25.476Z,91.71
2018-09-03T03:55:25.452Z,91.81
2018-09-03T03:56:25.436Z,91.52
2018-09-03T03:57:25.424Z,91.42
2018-09-03T03:58:25.413Z,91.81
2018-09-03T03:59:25.399Z,92.00
2018-09-03T04:00:25.378Z,92.00
2018-09-03T04:01:25.363Z,92.38
2018-09-03T04:02:25.349Z,92.57
2018-09-03T04:03:25.433Z,92.10
2018-09-03T04:04:25.315Z,92.86
2018-09-03T04:05:25.305Z,93.25
2018-09-03T04:06:25.342Z,93.15
2018-09-03T04:07:25.271Z,93.15
2018-09-03T04:08:25.262Z,93.05
2018-09-03T04:09:25.256Z,93.25
2018-09-03T04:10:25.231Z,93.44
2018-09-03T04:11:25.214Z,93.44
2018-09-03T04:12:25.194Z,93.15
2018-09-03T04:13:25.182Z,93.34
2018-09-03T04:14:25.165Z,93.77
2018-09-03T04:15:25.151Z,93.39
2018-09-03T04:16:25.148Z,94.26
2018-09-03T04:17:25.126Z,93.82
2018-09-03T04:18:25.106Z,94.11
2018-09-03T04:19:25.100Z,94.21
2018-09-03T04:20:25.079Z,94.26
2018-09-03T04:21:25.062Z,94.35
2018-09-03T04:22:25.047Z,94.07
2018-09-03T04:23:25.225Z,95.07
2018-09-03T04:24:25.017Z,94.59
2018-09-03T04:25:25.009Z,94.40
2018-09-03T04:26:25.006Z,94.88
2018-09-03T04:27:24.982Z,94.88
2018-09-03T04:28:24.954Z,94.98
2018-09-03T04:29:24.938Z,94.78
2018-09-03T04:30:24.923Z,94.98
2018-09-03T04:31:24.909Z,94.59
2018-09-03T04:32:24.893Z,94.98
2018-09-03T04:33:24.931Z,95.07
2018-09-03T04:34:24.864Z,94.69
2018-09-03T04:35:24.859Z,94.98
2018-09-03T04:36:24.836Z,94.59
2018-09-03T04:37:24.820Z,94.98
2018-09-03T04:38:24.803Z,94.98
2018-09-03T04:39:24.793Z,94.98
2018-09-03T04:40:24.776Z,94.78
2018-09-03T04:41:24.764Z,95.55
2018-09-03T04:42:24.742Z,95.36
2018-09-03T04:43:24.729Z,95.65
2018-09-03T04:44:24.711Z,96.03
2018-09-03T04:45:24.697Z,95.94
2018-09-03T04:46:24.689Z,96.32
2018-09-03T04:47:24.667Z,96.51
2018-09-03T04:48:24.656Z,95.75
2018-09-03T04:49:24.645Z,96.32
2018-09-03T04:50:24.624Z,95.94
2018-09-03T04:51:24.609Z,95.94
2018-09-03T04:52:24.592Z,96.13
2018-09-03T04:53:24.576Z,96.32
2018-09-03T04:54:24.566Z,96.42
2018-09-03T04:55:24.623Z,96.13
2018-09-03T04:56:24.532Z,95.84
2018-09-03T04:57:24.515Z,96.70
2018-09-03T04:58:24.504Z,96.51
2018-09-03T04:59:24.486Z,96.80
2018-09-03T05:00:24.476Z,96.99
2018-09-03T05:01:24.458Z,96.89
2018-09-03T05:02:24.441Z,97.38
2018-09-03T05:03:24.467Z,97.09
2018-09-03T05:04:24.414Z,97.38
2018-09-03T05:05:24.451Z,97.28
2018-09-03T05:06:24.385Z,97.09
2018-09-03T05:07:24.376Z,97.09
2018-09-03T05:08:24.361Z,97.09
2018-09-03T05:09:24.335Z,97.19
2018-09-03T05:10:24.321Z,96.99
2018-09-03T05:11:24.310Z,98.05
2018-09-03T05:12:24.291Z,97.76
2018-09-03T05:13:24.274Z,98.24
2018-09-03T05:14:24.266Z,98.05
2018-09-03T05:15:24.285Z,98.34
2018-09-03T05:16:24.230Z,98.43
2018-09-03T05:17:24.218Z,98.82
2018-09-03T05:18:24.203Z,98.82
2018-09-03T05:19:24.187Z,99.30
2018-09-03T05:20:24.178Z,99.30
2018-09-03T05:21:24.164Z,99.20
2018-09-03T05:22:24.142Z,98.82
2018-09-03T05:23:24.127Z,98.82
2018-09-03T05:24:24.111Z,99.30
2018-09-03T05:25:24.094Z,98.91
2018-09-03T05:26:24.083Z,98.82
2018-09-03T05:27:24.064Z,99.10
2018-09-03T05:28:24.050Z,99.30
2018-09-03T05:29:24.043Z,98.91
2018-09-03T05:30:24.020Z,99.99
2018-09-03T05:31:24.004Z,98.91
2018-09-03T05:32:23.988Z,99.01
2018-09-03T05:33:23.973Z,99.15
2018-09-03T05:34:23.959Z,99.97
2018-09-03T05:35:23.945Z,99.58
2018-09-03T05:36:23.927Z,99.83
2018-09-03T05:37:23.917Z,99.63
2018-09-03T05:38:23.898Z,99.54
2018-09-03T05:39:23.898Z,99.83
2018-09-03T05:40:23.868Z,99.35
2018-09-03T05:41:23.905Z,99.99
2018-09-03T05:42:23.840Z,99.92
2018-09-03T05:43:23.958Z,99.99
2018-09-03T05:44:23.812Z,99.99
2018-09-03T05:45:23.793Z,99.99
2018-09-03T05:46:23.778Z,99.99
2018-09-03T05:47:23.778Z,99.99
2018-09-03T05:48:23.751Z,99.99
2018-09-03T05:49:23.733Z,99.99
2018-09-03T05:50:23.854Z,99.92
2018-09-03T05:51:23.703Z,99.83
2018-09-03T05:52:23.690Z,99.99
2018-09-03T05:53:23.680Z,99.99
2018-09-03T05:54:23.666Z,99.99
2018-09-03T05:55:23.645Z,99.99
2018-09-03T05:56:23.629Z,99.99
2018-09-03T05:57:23.612Z,99.99
2018-09-03T05:58:23.606Z,99.99
2018-09-03T05:59:23.587Z,99.99
2018-09-03T06:00:23.578Z,99.99
2018-09-03T06:01:23.559Z,99.99
2018-09-03T06:02:23.697Z,99.99
2018-09-03T06:03:23.524Z,99.99
2018-09-03T06:04:23.508Z,99.99
2018-09-03T06:05:23.494Z,99.99
2018-09-03T06:06:23.483Z,99.99
2018-09-03T06:07:23.476Z,99.99
2018-09-03T06:08:23.448Z,99.99
2018-09-03T06:09:23.440Z,99.99
2018-09-03T06:10:23.472Z,99.99
2018-09-03T06:11:23.404Z,99.99
2018-09-03T06:12:23.397Z,99.99
2018-09-03T06:13:23.391Z,99.99
2018-09-03T06:14:23.358Z,99.99
2018-09-03T06:15:23.360Z,99.99
2018-09-03T06:16:23.336Z,99.99
2018-09-03T06:17:23.317Z,99.99
2018-09-03T06:18:23.303Z,99.99
2018-09-03T06:19:23.293Z,99.99
2018-09-03T06:20:23.270Z,99.99
2018-09-03T06:21:23.414Z,99.99
2018-09-03T06:22:23.240Z,99.99
2018-09-03T06:23:23.227Z,99.99
2018-09-03T06:24:23.355Z,99.99
2018-09-03T06:25:23.194Z,99.99
2018-09-03T06:26:23.189Z,99.99
2018-09-03T06:27:23.222Z,99.99
2018-09-03T06:28:23.158Z,99.99
2018-09-03T06:29:23.140Z,99.99
2018-09-03T06:30:23.131Z,99.99
2018-09-03T06:31:23.118Z,99.99
2018-09-03T06:32:23.098Z,99.99
2018-09-03T06:33:23.078Z,99.99
2018-09-03T06:34:23.073Z,99.99
2018-09-03T06:35:23.051Z,99.99
2018-09-03T06:36:23.033Z,99.99
2018-09-03T06:37:23.019Z,99.99
2018-09-03T06:38:23.006Z,99.99
2018-09-03T06:39:22.992Z,99.99
2018-09-03T06:40:22.976Z,99.99
2018-09-03T06:41:22.958Z,99.99
2018-09-03T06:42:22.954Z,99.99
2018-09-03T06:43:22.938Z,99.99
2018-09-03T06:44:22.916Z,99.99
2018-09-03T06:45:22.902Z,99.99
2018-09-03T06:46:22.894Z,99.99
2018-09-03T06:47:22.910Z,99.99
2018-09-03T06:48:22.865Z,99.99
2018-09-03T06:49:22.843Z,99.99
2018-09-03T06:50:22.829Z,99.99
2018-09-03T06:51:22.833Z,99.99
2018-09-03T06:52:22.797Z,99.99
2018-09-03T06:53:22.790Z,99.99
2018-09-03T06:54:22.770Z,99.99
2018-09-03T06:55:22.754Z,99.99
2018-09-03T06:56:22.747Z,99.99
2018-09-03T06:57:22.726Z,99.99
2018-09-03T06:58:22.709Z,99.99
2018-09-03T06:59:22.700Z,99.99
2018-09-03T07:00:22.680Z,99.99
2018-09-03T07:01:22.714Z,99.99
2018-09-03T07:02:22.651Z,99.99
2018-09-03T07:03:22.637Z,99.99
2018-09-03T07:04:22.752Z,99.99
2018-09-03T07:05:22.609Z,99.99
2018-09-03T07:06:22.604Z,99.99
2018-09-03T07:07:22.579Z,99.99
2018-09-03T07:08:22.586Z,99.99
2018-09-03T07:09:22.558Z,99.99
2018-09-03T07:10:22.537Z,99.99
2018-09-03T07:11:22.518Z,99.99
2018-09-03T07:12:22.512Z,99.99
2018-09-03T07:13:22.488Z,99.99
2018-09-03T07:14:22.475Z,99.99
2018-09-03T07:15:22.462Z,99.99
2018-09-03T07:16:22.454Z,99.99
2018-09-03T07:17:22.431Z,99.99
2018-09-03T07:18:22.415Z,99.99
2018-09-03T07:19:22.402Z,99.99
2018-09-03T07:20:22.385Z,99.99
2018-09-03T07:21:22.371Z,99.99
2018-09-03T07:22:22.356Z,99.99
2018-09-03T07:23:22.342Z,99.99
2018-09-03T07:24:22.332Z,99.99
2018-09-03T07:25:22.312Z,99.99
2018-09-03T07:26:22.296Z,99.99
2018-09-03T07:27:22.282Z,99.99
2018-09-03T07:28:22.271Z,99.99
2018-09-03T07:29:22.260Z,99.99
2018-09-03T07:30:22.239Z,99.99
2018-09-03T07:31:22.224Z,99.99
2018-09-03T07:32:22.212Z,99.99
2018-09-03T07:33:22.205Z,99.99
2018-09-03T07:34:22.178Z,99.99
2018-09-03T07:35:22.165Z,99.99
2018-09-03T07:36:22.151Z,99.99
2018-09-03T07:37:22.135Z,99.99
2018-09-03T07:38:22.120Z,99.99
2018-09-03T07:39:22.105Z,99.99
2018-09-03T07:40:22.096Z,99.99
2018-09-03T07:41:22.075Z,99.99
2018-09-03T07:42:22.062Z,99.99
2018-09-03T07:43:22.069Z,99.99
2018-09-03T07:44:22.032Z,99.99
2018-09-03T07:45:22.015Z,99.99
2018-09-03T07:46:22.007Z,99.99
2018-09-03T07:47:21.987Z,99.99
2018-09-03T07:48:21.980Z,99.99
2018-09-03T07:49:21.954Z,99.99
2018-09-03T07:50:21.943Z,99.99
2018-09-03T07:51:21.930Z,99.99
2018-09-03T07:52:21.913Z,99.99
2018-09-03T07:53:21.900Z,99.99
2018-09-03T07:54:21.890Z,99.99
2018-09-03T07:55:21.871Z,99.99
2018-09-03T07:56:21.934Z,99.99
2018-09-03T07:57:21.839Z,99.99
2018-09-03T07:58:21.838Z,99.99
2018-09-03T07:59:21.844Z,99.99
2018-09-03T08:00:21.801Z,99.99
2018-09-03T08:01:21.782Z,99.99
2018-09-03T08:02:21.772Z,99.99
2018-09-03T08:03:21.757Z,99.99
2018-09-03T08:04:21.749Z,99.99
2018-09-03T08:05:21.725Z,99.99
2018-09-03T08:06:21.708Z,99.99
2018-09-03T08:07:21.747Z,99.99
2018-09-03T08:08:21.685Z,99.99
2018-09-03T08:09:21.669Z,99.99
2018-09-03T08:10:21.665Z,99.99
2018-09-03T08:11:21.638Z,99.99
2018-09-03T08:12:21.623Z,99.99
2018-09-03T08:13:21.608Z,99.99
2018-09-03T08:14:21.595Z,99.99
2018-09-03T08:15:21.580Z,99.99
2018-09-03T08:16:21.568Z,99.99
2018-09-03T08:17:21.560Z,99.99
2018-09-03T08:18:21.537Z,99.99
2018-09-03T08:19:21.525Z,99.99
2018-09-03T08:20:21.512Z,99.99
2018-09-03T08:21:21.495Z,99.99
2018-09-03T08:22:21.490Z,99.99
2018-09-03T08:23:21.481Z,99.99
2018-09-03T08:24:21.452Z,99.99
2018-09-03T08:25:21.440Z,98.63
2018-09-03T08:26:21.428Z,99.11
2018-09-03T08:27:21.414Z,99.35
2018-09-03T08:28:21.400Z,98.20
2018-09-03T08:29:21.386Z,97.14
2018-09-03T08:30:21.456Z,95.26
2018-09-03T08:31:21.365Z,94.87
2018-09-03T08:32:21.353Z,93.91
2018-09-03T08:33:21.339Z,92.70
2018-09-03T08:34:21.319Z,92.94
2018-09-03T08:35:21.308Z,93.13
2018-09-03T08:36:21.293Z,93.96
2018-09-03T08:37:21.293Z,94.15
2018-09-03T08:38:21.267Z,94.15
2018-09-03T08:39:21.259Z,94.73
2018-09-03T08:40:21.242Z,94.78
2018-09-03T08:41:21.231Z,93.81
2018-09-03T08:42:21.221Z,92.75
2018-09-03T08:43:21.204Z,92.56
2018-09-03T08:44:21.203Z,93.43
2018-09-03T08:45:21.178Z,93.71
2018-09-03T08:46:21.170Z,92.85
2018-09-03T08:47:21.152Z,92.17
2018-09-03T08:48:21.145Z,92.36
2018-09-03T08:49:21.128Z,93.19
2018-09-03T08:50:21.186Z,93.86
2018-09-03T08:51:21.113Z,94.73
2018-09-03T08:52:21.090Z,93.96
2018-09-03T08:53:21.084Z,93.86
2018-09-03T08:54:21.067Z,94.00
2018-09-03T08:55:21.055Z,93.52
2018-09-03T08:56:21.044Z,93.33
2018-09-03T08:57:21.030Z,92.65
2018-09-03T08:58:21.016Z,93.13
2018-09-03T08:59:21.007Z,92.46
2018-09-03T09:00:20.995Z,92.17
2018-09-03T09:01:20.980Z,91.93
2018-09-03T09:02:20.967Z,91.40
2018-09-03T09:03:20.955Z,90.87
2018-09-03T09:04:20.941Z,89.85
2018-09-03T09:05:20.934Z,89.85
2018-09-03T09:06:21.019Z,88.31
2018-09-03T09:07:20.913Z,87.38
2018-09-03T09:08:20.894Z,86.86
2018-09-03T09:09:20.882Z,87.34
2018-09-03T09:10:20.877Z,88.69
2018-09-03T09:11:20.864Z,88.69
2018-09-03T09:12:20.848Z,88.50
2018-09-03T09:13:20.843Z,87.24
2018-09-03T09:14:20.868Z,87.34
2018-09-03T09:15:20.823Z,88.59
2018-09-03T09:16:20.808Z,88.31
2018-09-03T09:17:20.790Z,88.59
2018-09-03T09:18:20.783Z,88.02
2018-09-03T09:19:20.767Z,87.82
2018-09-03T09:20:20.754Z,87.44
2018-09-03T09:21:20.748Z,87.77
2018-09-03T09:22:20.762Z,87.00
2018-09-03T09:23:20.728Z,86.32
2018-09-03T09:24:20.739Z,86.90
2018-09-03T09:25:20.704Z,86.22
2018-09-03T09:26:20.693Z,85.94
2018-09-03T09:27:20.699Z,85.40
2018-09-03T09:28:20.679Z,85.21
2018-09-03T09:29:20.664Z,84.72
2018-09-03T09:30:20.658Z,85.15
2018-09-03T09:31:20.636Z,83.80
2018-09-03T09:32:20.625Z,84.19
2018-09-03T09:33:20.617Z,83.51
2018-09-03T09:34:20.615Z,83.45
2018-09-03T09:35:20.597Z,82.81
2018-09-03T09:36:20.593Z,81.37
2018-09-03T09:37:20.590Z,80.79
2018-09-03T09:38:20.562Z,80.20
2018-09-03T09:39:20.552Z,79.14
2018-09-03T09:40:20.548Z,79.76
2018-09-03T09:41:20.577Z,79.17
2018-09-03T09:42:20.520Z,78.64
2018-09-03T09:43:20.511Z,77.86
2018-09-03T09:44:20.503Z,76.60
2018-09-03T09:45:20.492Z,76.15
2018-09-03T09:46:20.485Z,75.32
2018-09-03T09:47:20.482Z,74.64
2018-09-03T09:48:20.467Z,73.61
2018-09-03T09:49:20.453Z,72.00
2018-09-03T09:50:20.444Z,71.06
2018-09-03T09:51:20.435Z,70.03
2018-09-03T09:52:20.423Z,69.29
2018-09-03T09:53:20.417Z,67.83
2018-09-03T09:54:20.424Z,67.63
2018-09-03T09:55:20.403Z,67.34
2018-09-03T09:56:20.393Z,67.38
2018-09-03T09:57:20.387Z,66.99
2018-09-03T09:58:20.380Z,67.76
2018-09-03T09:59:20.373Z,67.38
2018-09-03T10:00:20.370Z,66.79
2018-09-03T10:01:20.360Z,66.05
2018-09-03T10:02:20.362Z,65.43
2018-09-03T10:03:20.349Z,66.31
2018-09-03T10:04:20.401Z,66.34
2018-09-03T10:05:20.433Z,64.62
2018-09-03T10:06:20.337Z,64.52
2018-09-03T10:07:20.331Z,64.04
2018-09-03T10:08:20.381Z,63.97
2018-09-03T10:09:20.319Z,63.29
2018-09-03T10:10:20.318Z,61.86
2018-09-03T10:11:20.318Z,63.16
2018-09-03T10:12:20.318Z,65.08
2018-09-03T10:13:20.303Z,64.52
2018-09-03T10:14:20.298Z,63.78
2018-09-03T10:15:20.299Z,63.94
2018-09-03T10:16:20.290Z,62.99
2018-09-03T10:17:20.297Z,63.45
2018-09-03T10:18:20.284Z,63.16
2018-09-03T10:19:20.287Z,63.16
2018-09-03T10:20:20.282Z,64.69
2018-09-03T10:21:20.279Z,65.63
2018-09-03T10:22:20.271Z,66.66
2018-09-03T10:23:20.266Z,66.37
2018-09-03T10:24:20.265Z,66.40
2018-09-03T10:26:39.063Z,64.95
2018-09-03T10:27:39.064Z,66.76
2018-09-03T10:28:39.050Z,67.80
2018-09-03T10:29:39.045Z,68.41
2018-09-03T10:30:39.043Z,70.06
2018-09-03T10:31:39.039Z,70.96
2018-09-03T10:32:39.035Z,71.54
2018-09-03T10:33:39.155Z,73.09
2018-09-03T10:34:39.024Z,73.28
2018-09-03T10:35:39.019Z,73.64
2018-09-03T10:36:39.014Z,74.02
2018-09-03T10:37:39.015Z,74.47
2018-09-03T10:38:39.005Z,75.34
2018-09-03T10:39:38.995Z,75.15
2018-09-03T10:40:38.994Z,75.15
2018-09-03T10:41:38.983Z,75.24
2018-09-03T10:42:38.974Z,75.05
2018-09-03T10:43:38.975Z,75.24
2018-09-03T10:44:38.961Z,74.80
2018-09-03T10:45:38.961Z,74.12
2018-09-03T10:46:38.954Z,73.38
2018-09-03T10:47:39.020Z,72.89
2018-09-03T10:48:38.947Z,72.55
2018-09-03T10:49:38.923Z,72.31
2018-09-03T10:50:38.923Z,73.35
2018-09-03T10:51:38.907Z,74.47
2018-09-03T10:52:38.899Z,75.05
2018-09-03T10:53:38.899Z,75.89
2018-09-03T10:54:38.907Z,76.76
2018-09-03T10:55:38.878Z,77.05
2018-09-03T10:56:38.878Z,77.14
2018-09-03T10:57:38.857Z,76.51
2018-09-03T10:58:38.850Z,76.28
2018-09-03T10:59:38.841Z,76.60
2018-09-03T11:00:38.842Z,76.60
2018-09-03T11:01:38.828Z,76.02
2018-09-03T11:02:38.816Z,76.41
2018-09-03T11:03:38.805Z,75.60
2018-09-03T11:04:38.797Z,76.02
2018-09-03T11:05:38.793Z,76.37
2018-09-03T11:06:38.789Z,76.66
2018-09-03T11:07:38.769Z,77.14
2018-09-03T11:08:38.760Z,75.98
2018-09-03T11:09:38.755Z,76.56
2018-09-03T11:10:38.742Z,76.66
2018-09-03T11:11:38.741Z,77.30
2018-09-03T11:12:38.722Z,77.69
2018-09-03T11:13:38.712Z,78.27
2018-09-03T11:14:38.706Z,78.17
2018-09-03T11:15:38.699Z,77.88
2018-09-03T11:16:38.684Z,77.05
2018-09-03T11:17:38.672Z,77.05
2018-09-03T11:18:38.665Z,76.95
2018-09-03T11:19:38.663Z,77.24
2018-09-03T11:20:38.653Z,76.89
2018-09-03T11:21:38.931Z,76.70
2018-09-03T11:22:38.625Z,76.31
2018-09-03T11:23:38.614Z,76.02
2018-09-03T11:24:38.613Z,75.73
2018-09-03T11:25:38.592Z,76.12
2018-09-03T11:26:38.584Z,76.02
2018-09-03T11:27:38.577Z,76.12
2018-09-03T11:28:38.638Z,75.63
2018-09-03T11:29:38.601Z,75.05
2018-09-03T11:30:38.545Z,75.15
2018-09-03T11:31:38.541Z,75.34
2018-09-03T11:32:38.525Z,75.24
2018-09-03T11:33:38.514Z,75.15
2018-09-03T11:34:38.501Z,75.48
2018-09-03T11:35:38.494Z,75.73
2018-09-03T11:36:38.483Z,76.46
2018-09-03T11:37:38.482Z,76.31
2018-09-03T11:38:38.464Z,77.28
2018-09-03T11:39:38.464Z,76.70
2018-09-03T11:40:38.498Z,76.31
2018-09-03T11:41:38.431Z,76.89
2018-09-03T11:42:38.428Z,76.31
2018-09-03T11:43:38.409Z,76.12
2018-09-03T11:44:38.411Z,75.83
2018-09-03T11:45:38.401Z,76.21
2018-09-03T11:46:38.379Z,76.60
2018-09-03T11:47:38.400Z,76.12
2018-09-03T11:48:38.367Z,75.83
2018-09-03T11:49:38.358Z,75.63
2018-09-03T11:50:38.340Z,75.19
2018-09-03T11:51:38.329Z,74.90
2018-09-03T11:52:38.320Z,74.80
2018-09-03T11:53:38.308Z,75.34
2018-09-03T11:54:38.319Z,75.87
2018-09-03T11:55:38.288Z,75.19
2018-09-03T11:56:38.278Z,75.48
2018-09-03T11:57:38.269Z,75.09
2018-09-03T11:58:38.257Z,74.99
2018-09-03T11:59:38.246Z,75.63
2018-09-03T12:00:38.307Z,75.57
2018-09-03T12:01:38.236Z,75.09
2018-09-03T12:02:38.217Z,75.38
2018-09-03T12:03:38.207Z,74.99
2018-09-03T12:04:38.197Z,74.70
2018-09-03T12:05:38.199Z,74.06
2018-09-03T12:06:38.184Z,74.06
2018-09-03T12:07:38.168Z,73.67
2018-09-03T12:08:38.157Z,73.48
2018-09-03T12:09:38.158Z,74.02
2018-09-03T12:10:38.135Z,74.41
2018-09-03T12:11:38.138Z,74.35
2018-09-03T12:12:38.121Z,74.16
2018-09-03T12:13:38.107Z,73.86
2018-09-03T12:14:38.101Z,72.71
2018-09-03T12:15:38.086Z,73.42
2018-09-03T12:16:38.076Z,72.64
2018-09-03T12:17:38.064Z,72.99
2018-09-03T12:18:38.065Z,73.09
2018-09-03T12:19:38.050Z,74.06
2018-09-03T12:20:38.047Z,74.06
2018-09-03T12:21:38.027Z,74.16
2018-09-03T12:22:38.027Z,74.16
2018-09-03T12:23:38.014Z,73.96
2018-09-03T12:24:37.998Z,74.26
2018-09-03T12:25:37.995Z,74.90
2018-09-03T12:26:37.987Z,75.28
2018-09-03T12:27:37.992Z,75.38
2018-09-03T12:28:37.959Z,74.90
2018-09-03T12:29:37.949Z,75.09
2018-09-03T12:30:37.937Z,75.19
2018-09-03T12:31:37.937Z,75.44
2018-09-03T12:32:37.920Z,74.99
2018-09-03T12:33:37.980Z,75.28
2018-09-03T12:34:37.899Z,74.51
2018-09-03T12:35:37.889Z,75.15
2018-09-03T12:36:37.879Z,75.83
2018-09-03T12:37:37.882Z,75.92
2018-09-03T12:38:37.874Z,75.83
2018-09-03T12:39:37.909Z,75.38
2018-09-03T12:40:37.839Z,75.48
2018-09-03T12:41:37.827Z,75.19
2018-09-03T12:42:37.826Z,74.96
2018-09-03T12:43:37.809Z,75.73
2018-09-03T12:44:37.801Z,76.51
2018-09-03T12:45:37.785Z,76.99
2018-09-03T12:46:37.776Z,76.56
2018-09-03T12:47:37.768Z,77.05
2018-09-03T12:48:37.754Z,77.24
2018-09-03T12:49:37.745Z,77.37
2018-09-03T12:50:37.743Z,76.89
2018-09-03T12:51:37.723Z,76.35
2018-09-03T12:52:37.736Z,76.12
2018-09-03T12:53:37.719Z,76.60